Current | Forecast
Updated: 6:30 AM CEST on June 21, 2018
Observed at Alicante, Spain
Temperature 21°C
Humidity 73%
Dew Point 16°C
Wind North at 7 km/h
Pressure 1017 hPa (Steady)
Conditions Clear
Visibility -
UV N/A
Clouds
Yesterday's Maximum 27°C
Yesterday's Minimum 19°C approx.
Yesterday's Cooling Degree Days 8 approx.
Sunrise6:41 AM CEST
Sunset9:29 PM CEST
Moon Rise3:06 PM CEST
Moon Set2:42 AM CEST
Moon PhaseMoon Phase
First Quarter
Raw METARMETAR LEAL 210430Z 35004KT 320V040 CAVOK 21/16 Q1017 NOSIG


Monday
. High: 82° F.
Tuesday
. High: 84° F.
Wednesday
. High: 78° F.
Thursday
. High: 78° F.
Friday
. High: 77° F.
Saturday
. High: 82° F.
Sunday
. High: 80° F.
Monday
. High: 78° F.

Click here for Marine Information
Scientific forecaster discussion (NWS)

Units: English | Metric

Find the Weather for any City, State or Zipcode, or Country:

U.S. State List | Severe Weather | Tropical Storms | Ski Conditions
United States | Canada | Central America | South America | Asia | Europe | Australia | Africa | Islands

Weather Underground

© Copyright 2018
The Weather Company, LLC